BHE1657 ZSSS-ZJSY
Flight info
| Callsign | BHE1657 |
|---|---|
| Flight time | 2h 41m |
| Altitude | 32100 |
| Route | NXD W131 AKDIM A470 DUBGO W134 ELNEX A599 PLT W19 NOMAR W18 NLG W23 ZUH R200 BIGRO G221 SAMAS/K0863S0840 G221 WL |
| Aircraft | B738/M-SDE2E3FGHIRWXY/LB1 |
Departure
| Time | 2026-05-04 04:06 |
|---|---|
| Airport | Shanghai Hongqiao International Airport (ZSSS) |
Arrival
| Time | 2026-05-04 06:48 |
|---|---|
| Airport | Sanya Phoenix International Airport (ZJSY) |
| Time | Latitude | Longitude | Altitude | Speed | Heading |
|---|---|---|---|---|---|
| 2026-05-04 03:43 | 31.19834 | 121.34345 | 19 ft | 0 kts | 177° |
| 2026-05-04 03:55 | 31.19841 | 121.34345 | 19 ft | 4 kts | 178° |
| 2026-05-04 03:56 | 31.19868 | 121.34346 | 20 ft | 4 kts | 186° |
| 2026-05-04 03:56 | 31.19894 | 121.34352 | 19 ft | 4 kts | 201° |
| 2026-05-04 03:56 | 31.19915 | 121.34367 | 20 ft | 4 kts | 242° |
| 2026-05-04 03:56 | 31.19918 | 121.34382 | 19 ft | 1 kts | 267° |
| 2026-05-04 03:57 | 31.19918 | 121.34384 | 19 ft | 0 kts | 267° |
| 2026-05-04 03:59 | 31.19918 | 121.34381 | 19 ft | 2 kts | 267° |
| 2026-05-04 03:59 | 31.19917 | 121.34338 | 18 ft | 9 kts | 267° |
| 2026-05-04 03:59 | 31.19913 | 121.34238 | 18 ft | 15 kts | 267° |
| 2026-05-04 03:59 | 31.19908 | 121.34112 | 18 ft | 15 kts | 267° |
| 2026-05-04 04:00 | 31.19905 | 121.34028 | 18 ft | 15 kts | 267° |
| 2026-05-04 04:00 | 31.19891 | 121.33907 | 18 ft | 9 kts | 265° |
| 2026-05-04 04:00 | 31.19861 | 121.33878 | 18 ft | 10 kts | 186° |
| 2026-05-04 04:00 | 31.19765 | 121.33883 | 18 ft | 17 kts | 177° |
| 2026-05-04 04:01 | 31.19624 | 121.33891 | 18 ft | 23 kts | 177° |
| 2026-05-04 04:01 | 31.19449 | 121.33900 | 18 ft | 25 kts | 177° |
| 2026-05-04 04:01 | 31.19282 | 121.33909 | 18 ft | 23 kts | 177° |
| 2026-05-04 04:01 | 31.19125 | 121.33918 | 18 ft | 22 kts | 177° |
| 2026-05-04 04:02 | 31.18970 | 121.33927 | 18 ft | 22 kts | 177° |
| 2026-05-04 04:02 | 31.18820 | 121.33934 | 18 ft | 21 kts | 177° |
| 2026-05-04 04:02 | 31.18676 | 121.33943 | 18 ft | 21 kts | 177° |
| 2026-05-04 04:02 | 31.18535 | 121.33951 | 18 ft | 20 kts | 177° |
| 2026-05-04 04:03 | 31.18431 | 121.33952 | 18 ft | 12 kts | 193° |
| 2026-05-04 04:03 | 31.18376 | 121.33888 | 18 ft | 11 kts | 241° |
| 2026-05-04 04:03 | 31.18366 | 121.33793 | 17 ft | 13 kts | 267° |
| 2026-05-04 04:03 | 31.18361 | 121.33678 | 17 ft | 15 kts | 267° |
| 2026-05-04 04:04 | 31.18357 | 121.33585 | 20 ft | 11 kts | 268° |
| 2026-05-04 04:04 | 31.18355 | 121.33509 | 18 ft | 8 kts | 267° |
| 2026-05-04 04:04 | 31.18351 | 121.33436 | 18 ft | 10 kts | 267° |
| 2026-05-04 04:04 | 31.18349 | 121.33359 | 18 ft | 9 kts | 268° |
| 2026-05-04 04:05 | 31.18387 | 121.33324 | 18 ft | 6 kts | 354° |
| 2026-05-04 04:05 | 31.18394 | 121.33323 | 19 ft | 0 kts | 358° |
| 2026-05-04 04:05 | 31.18415 | 121.33322 | 20 ft | 16 kts | 357° |
| 2026-05-04 04:06 | 31.18776 | 121.33302 | 19 ft | 87 kts | 357° |
| 2026-05-04 04:06 | 31.19596 | 121.33258 | 16 ft | 147 kts | 357° |
| 2026-05-04 04:06 | 31.20748 | 121.33191 | 331 ft | 171 kts | 356° |
| 2026-05-04 04:06 | 31.21952 | 121.33097 | 1077 ft | 174 kts | 346° |
| 2026-05-04 04:07 | 31.22962 | 121.32380 | 1773 ft | 177 kts | 302° |
| 2026-05-04 04:07 | 31.23569 | 121.30997 | 2130 ft | 204 kts | 294° |
| 2026-05-04 04:07 | 31.24249 | 121.29467 | 2598 ft | 215 kts | 298° |
| 2026-05-04 04:07 | 31.25005 | 121.27948 | 3230 ft | 218 kts | 300° |
| 2026-05-04 04:08 | 31.25806 | 121.26423 | 3774 ft | 223 kts | 301° |
| 2026-05-04 04:08 | 31.26635 | 121.24888 | 4465 ft | 225 kts | 302° |
| 2026-05-04 04:08 | 31.27339 | 121.23274 | 4817 ft | 225 kts | 283° |
| 2026-05-04 04:08 | 31.27317 | 121.21507 | 4937 ft | 244 kts | 256° |
| 2026-05-04 04:09 | 31.26511 | 121.19633 | 4952 ft | 266 kts | 238° |
| 2026-05-04 04:09 | 31.25429 | 121.17903 | 4928 ft | 268 kts | 235° |
| 2026-05-04 04:09 | 31.24283 | 121.16140 | 4964 ft | 268 kts | 236° |
| 2026-05-04 04:09 | 31.23169 | 121.14400 | 5315 ft | 273 kts | 236° |
| 2026-05-04 04:10 | 31.21879 | 121.12754 | 6131 ft | 279 kts | 218° |
| 2026-05-04 04:10 | 31.20077 | 121.11905 | 6920 ft | 290 kts | 191° |
| 2026-05-04 04:10 | 31.18024 | 121.11882 | 7735 ft | 294 kts | 179° |
| 2026-05-04 04:10 | 31.15977 | 121.12033 | 8559 ft | 295 kts | 178° |
| 2026-05-04 04:11 | 31.13928 | 121.12176 | 9360 ft | 297 kts | 179° |
| 2026-05-04 04:11 | 31.11848 | 121.12306 | 10168 ft | 298 kts | 179° |
| 2026-05-04 04:11 | 31.09730 | 121.12305 | 10530 ft | 313 kts | 192° |
| 2026-05-04 04:11 | 31.07673 | 121.11339 | 10696 ft | 329 kts | 219° |
| 2026-05-04 04:12 | 31.06173 | 121.09289 | 10861 ft | 343 kts | 246° |
| 2026-05-04 04:12 | 31.05387 | 121.06598 | 11031 ft | 360 kts | 256° |
| 2026-05-04 04:12 | 31.04699 | 121.03702 | 11185 ft | 378 kts | 256° |
| 2026-05-04 04:12 | 31.04014 | 121.00741 | 11587 ft | 386 kts | 256° |
| 2026-05-04 04:13 | 31.03304 | 120.97704 | 12192 ft | 388 kts | 256° |
| 2026-05-04 04:13 | 31.02580 | 120.94668 | 12826 ft | 390 kts | 256° |
| 2026-05-04 04:13 | 31.01838 | 120.91608 | 13422 ft | 393 kts | 256° |
| 2026-05-04 04:13 | 31.01083 | 120.88531 | 13968 ft | 396 kts | 256° |
| 2026-05-04 04:14 | 31.00322 | 120.85453 | 14470 ft | 398 kts | 255° |
| 2026-05-04 04:14 | 30.99550 | 120.82345 | 14995 ft | 400 kts | 255° |
| 2026-05-04 04:14 | 30.98771 | 120.79211 | 15500 ft | 402 kts | 255° |
| 2026-05-04 04:14 | 30.97996 | 120.76104 | 15995 ft | 404 kts | 255° |
| 2026-05-04 04:15 | 30.97219 | 120.72989 | 16481 ft | 406 kts | 255° |
| 2026-05-04 04:15 | 30.96426 | 120.69811 | 16966 ft | 408 kts | 255° |
| 2026-05-04 04:15 | 30.95629 | 120.66624 | 17422 ft | 411 kts | 255° |
| 2026-05-04 04:15 | 30.94829 | 120.63424 | 17874 ft | 413 kts | 255° |
| 2026-05-04 04:16 | 30.94022 | 120.60200 | 18347 ft | 415 kts | 255° |
| 2026-05-04 04:16 | 30.93211 | 120.56967 | 18749 ft | 416 kts | 255° |
| 2026-05-04 04:16 | 30.92399 | 120.53728 | 19164 ft | 417 kts | 255° |
| 2026-05-04 04:16 | 30.91585 | 120.50488 | 19612 ft | 416 kts | 255° |
| 2026-05-04 04:17 | 30.90772 | 120.47259 | 20050 ft | 416 kts | 254° |
| 2026-05-04 04:17 | 30.89639 | 120.44165 | 20421 ft | 419 kts | 240° |
| 2026-05-04 04:17 | 30.87828 | 120.41489 | 20803 ft | 425 kts | 227° |
| 2026-05-04 04:17 | 30.85531 | 120.39365 | 21162 ft | 429 kts | 219° |
| 2026-05-04 04:18 | 30.83076 | 120.37365 | 21505 ft | 430 kts | 219° |
| 2026-05-04 04:18 | 30.80597 | 120.35385 | 21827 ft | 432 kts | 218° |
| 2026-05-04 04:18 | 30.78121 | 120.33405 | 22133 ft | 433 kts | 219° |
| 2026-05-04 04:18 | 30.75640 | 120.31405 | 22450 ft | 433 kts | 219° |
| 2026-05-04 04:19 | 30.73168 | 120.29395 | 22758 ft | 434 kts | 219° |
| 2026-05-04 04:19 | 30.70702 | 120.27378 | 23067 ft | 434 kts | 219° |
| 2026-05-04 04:19 | 30.68232 | 120.25353 | 23348 ft | 435 kts | 219° |
| 2026-05-04 04:19 | 30.65756 | 120.23321 | 23601 ft | 436 kts | 220° |
| 2026-05-04 04:20 | 30.63273 | 120.21284 | 23829 ft | 437 kts | 219° |
| 2026-05-04 04:20 | 30.60786 | 120.19246 | 24038 ft | 437 kts | 219° |
| 2026-05-04 04:20 | 30.58299 | 120.17209 | 24243 ft | 438 kts | 219° |
| 2026-05-04 04:20 | 30.55836 | 120.15194 | 24439 ft | 438 kts | 219° |
| 2026-05-04 04:21 | 30.53341 | 120.13154 | 24627 ft | 439 kts | 219° |
| 2026-05-04 04:21 | 30.50836 | 120.11107 | 24828 ft | 439 kts | 219° |
| 2026-05-04 04:21 | 30.48335 | 120.09064 | 25013 ft | 440 kts | 219° |
| 2026-05-04 04:21 | 30.45832 | 120.07022 | 25203 ft | 440 kts | 219° |
| 2026-05-04 04:22 | 30.43311 | 120.04992 | 25377 ft | 442 kts | 217° |
| 2026-05-04 04:22 | 30.40671 | 120.03143 | 25541 ft | 445 kts | 215° |
| 2026-05-04 04:22 | 30.38006 | 120.01379 | 25707 ft | 446 kts | 214° |
| 2026-05-04 04:22 | 30.35299 | 119.99614 | 25871 ft | 446 kts | 214° |
| 2026-05-04 04:23 | 30.32594 | 119.97849 | 26003 ft | 446 kts | 214° |
| 2026-05-04 04:23 | 30.29888 | 119.96073 | 26121 ft | 447 kts | 214° |
| 2026-05-04 04:23 | 30.27187 | 119.94291 | 26263 ft | 447 kts | 214° |
| 2026-05-04 04:23 | 30.24498 | 119.92511 | 26444 ft | 445 kts | 214° |
| 2026-05-04 04:24 | 30.21810 | 119.90729 | 26644 ft | 444 kts | 214° |
| 2026-05-04 04:24 | 30.19137 | 119.88956 | 26826 ft | 443 kts | 214° |
| 2026-05-04 04:24 | 30.16461 | 119.87182 | 26996 ft | 443 kts | 214° |
| 2026-05-04 04:24 | 30.13791 | 119.85414 | 27210 ft | 442 kts | 214° |
| 2026-05-04 04:25 | 30.11129 | 119.83653 | 27449 ft | 440 kts | 215° |
| 2026-05-04 04:25 | 30.08478 | 119.81900 | 27669 ft | 439 kts | 214° |
| 2026-05-04 04:25 | 30.05830 | 119.80150 | 27894 ft | 438 kts | 215° |
| 2026-05-04 04:25 | 30.03169 | 119.78384 | 28026 ft | 438 kts | 215° |
| 2026-05-04 04:26 | 30.00538 | 119.76616 | 28224 ft | 437 kts | 215° |
| 2026-05-04 04:26 | 29.97954 | 119.74874 | 28488 ft | 435 kts | 215° |
| 2026-05-04 04:26 | 29.95348 | 119.73118 | 28766 ft | 432 kts | 215° |
| 2026-05-04 04:26 | 29.92754 | 119.71371 | 28996 ft | 431 kts | 215° |
| 2026-05-04 04:27 | 29.90163 | 119.69630 | 29225 ft | 430 kts | 216° |
| 2026-05-04 04:27 | 29.87579 | 119.67896 | 29517 ft | 428 kts | 216° |
| 2026-05-04 04:27 | 29.85023 | 119.66153 | 29776 ft | 426 kts | 218° |
| 2026-05-04 04:27 | 29.82558 | 119.64271 | 30003 ft | 424 kts | 219° |
| 2026-05-04 04:28 | 29.80132 | 119.62349 | 30254 ft | 422 kts | 220° |
| 2026-05-04 04:28 | 29.77719 | 119.60424 | 30484 ft | 421 kts | 220° |
| 2026-05-04 04:28 | 29.75308 | 119.58508 | 30719 ft | 420 kts | 220° |
| 2026-05-04 04:28 | 29.72909 | 119.56614 | 31000 ft | 417 kts | 219° |
| 2026-05-04 04:29 | 29.70520 | 119.54736 | 31227 ft | 416 kts | 219° |
| 2026-05-04 04:29 | 29.68162 | 119.52888 | 31463 ft | 415 kts | 219° |
| 2026-05-04 04:29 | 29.65779 | 119.51023 | 31726 ft | 412 kts | 219° |
| 2026-05-04 04:29 | 29.63487 | 119.49078 | 32004 ft | 406 kts | 224° |
| 2026-05-04 04:30 | 29.61449 | 119.46866 | 32232 ft | 401 kts | 231° |
| 2026-05-04 04:30 | 29.59601 | 119.44446 | 32232 ft | 402 kts | 232° |
| 2026-05-04 04:30 | 29.55890 | 119.39633 | 32247 ft | 403 kts | 231° |
| 2026-05-04 04:31 | 29.52141 | 119.34852 | 32244 ft | 402 kts | 231° |
| 2026-05-04 04:31 | 29.48373 | 119.30082 | 32248 ft | 403 kts | 231° |
| 2026-05-04 04:32 | 29.44629 | 119.25343 | 32255 ft | 403 kts | 231° |
| 2026-05-04 04:32 | 29.40860 | 119.20573 | 32242 ft | 403 kts | 231° |
| 2026-05-04 04:33 | 29.37097 | 119.15814 | 32256 ft | 403 kts | 231° |
| 2026-05-04 04:33 | 29.33336 | 119.11060 | 32240 ft | 402 kts | 231° |
| 2026-05-04 04:34 | 29.29589 | 119.06313 | 32253 ft | 401 kts | 231° |
| 2026-05-04 04:34 | 29.25836 | 119.01565 | 32255 ft | 401 kts | 231° |
| 2026-05-04 04:35 | 29.22079 | 118.96828 | 32251 ft | 401 kts | 231° |
| 2026-05-04 04:35 | 29.18327 | 118.92118 | 32254 ft | 402 kts | 231° |
| 2026-05-04 04:36 | 29.14544 | 118.87375 | 32249 ft | 403 kts | 231° |
| 2026-05-04 04:36 | 29.10792 | 118.82672 | 32255 ft | 403 kts | 231° |
| 2026-05-04 04:37 | 29.03220 | 118.73195 | 32246 ft | 403 kts | 231° |
| 2026-05-04 04:38 | 28.99433 | 118.68464 | 32245 ft | 403 kts | 231° |
| 2026-05-04 04:38 | 28.95648 | 118.63741 | 32246 ft | 403 kts | 231° |
| 2026-05-04 04:39 | 28.91851 | 118.59008 | 32240 ft | 403 kts | 231° |
| 2026-05-04 04:39 | 28.88085 | 118.54320 | 32242 ft | 403 kts | 231° |
| 2026-05-04 04:40 | 28.84289 | 118.49600 | 32247 ft | 403 kts | 231° |
| 2026-05-04 04:40 | 28.80487 | 118.44876 | 32239 ft | 404 kts | 231° |
| 2026-05-04 04:41 | 28.76685 | 118.40160 | 32236 ft | 404 kts | 231° |
| 2026-05-04 04:41 | 28.72879 | 118.35444 | 32231 ft | 404 kts | 231° |
| 2026-05-04 04:42 | 28.69077 | 118.30737 | 32236 ft | 403 kts | 231° |
| 2026-05-04 04:42 | 28.65276 | 118.26037 | 32229 ft | 403 kts | 231° |
| 2026-05-04 04:43 | 28.61497 | 118.21370 | 32230 ft | 404 kts | 231° |
| 2026-05-04 04:43 | 28.57686 | 118.16669 | 32228 ft | 404 kts | 230° |
| 2026-05-04 04:44 | 28.53873 | 118.11970 | 32231 ft | 404 kts | 230° |
| 2026-05-04 04:44 | 28.50056 | 118.07271 | 32225 ft | 404 kts | 230° |
| 2026-05-04 04:45 | 28.46880 | 118.03365 | 32233 ft | 405 kts | 230° |
| 2026-05-04 04:47 | 28.33274 | 117.87045 | 32225 ft | 407 kts | 230° |
| 2026-05-04 04:47 | 28.29342 | 117.82425 | 32223 ft | 407 kts | 230° |
| 2026-05-04 04:48 | 28.25406 | 117.77795 | 32221 ft | 407 kts | 230° |
| 2026-05-04 04:49 | 28.15599 | 117.66269 | 32226 ft | 407 kts | 230° |
| 2026-05-04 04:49 | 28.11654 | 117.61642 | 32229 ft | 408 kts | 229° |
| 2026-05-04 04:50 | 28.07711 | 117.57022 | 32236 ft | 408 kts | 229° |
| 2026-05-04 04:50 | 28.03759 | 117.52399 | 32209 ft | 408 kts | 229° |
| 2026-05-04 04:51 | 27.99816 | 117.47787 | 32237 ft | 408 kts | 229° |
| 2026-05-04 04:51 | 27.95871 | 117.43175 | 32227 ft | 407 kts | 229° |
| 2026-05-04 04:52 | 27.91925 | 117.38566 | 32188 ft | 406 kts | 229° |
| 2026-05-04 04:52 | 27.88035 | 117.34027 | 32240 ft | 404 kts | 229° |
| 2026-05-04 04:53 | 27.84109 | 117.29452 | 32224 ft | 405 kts | 229° |
| 2026-05-04 04:53 | 27.80177 | 117.24874 | 32229 ft | 406 kts | 229° |
| 2026-05-04 04:54 | 27.76234 | 117.20291 | 32220 ft | 407 kts | 229° |
| 2026-05-04 04:54 | 27.72276 | 117.15694 | 32202 ft | 408 kts | 229° |
| 2026-05-04 04:55 | 27.68327 | 117.11112 | 32225 ft | 407 kts | 229° |
| 2026-05-04 04:55 | 27.64398 | 117.06557 | 32210 ft | 407 kts | 229° |
| 2026-05-04 04:56 | 27.60443 | 117.01979 | 32214 ft | 408 kts | 229° |
| 2026-05-04 04:56 | 27.56483 | 116.97396 | 32223 ft | 408 kts | 228° |
| 2026-05-04 04:57 | 27.52509 | 116.92807 | 32216 ft | 409 kts | 229° |
| 2026-05-04 04:57 | 27.48557 | 116.88207 | 32214 ft | 409 kts | 229° |
| 2026-05-04 04:58 | 27.44601 | 116.83569 | 32221 ft | 409 kts | 229° |
| 2026-05-04 04:58 | 27.40687 | 116.78986 | 32215 ft | 409 kts | 229° |
| 2026-05-04 04:59 | 27.36745 | 116.74380 | 32224 ft | 409 kts | 229° |
| 2026-05-04 04:59 | 27.32792 | 116.69766 | 32222 ft | 409 kts | 229° |
| 2026-05-04 05:00 | 27.28833 | 116.65152 | 32225 ft | 409 kts | 228° |
| 2026-05-04 05:01 | 27.22897 | 116.58241 | 32218 ft | 410 kts | 229° |
| 2026-05-04 05:01 | 27.18952 | 116.53612 | 32221 ft | 410 kts | 229° |
| 2026-05-04 05:02 | 27.15104 | 116.48939 | 32219 ft | 410 kts | 230° |
| 2026-05-04 05:02 | 27.11237 | 116.44231 | 32224 ft | 410 kts | 230° |
| 2026-05-04 05:03 | 27.07357 | 116.39529 | 32214 ft | 410 kts | 229° |
| 2026-05-04 05:04 | 26.99593 | 116.30154 | 32226 ft | 411 kts | 229° |
| 2026-05-04 05:04 | 26.95696 | 116.25453 | 32218 ft | 412 kts | 229° |
| 2026-05-04 05:06 | 26.80133 | 116.06572 | 32213 ft | 413 kts | 229° |
| 2026-05-04 05:07 | 26.76240 | 116.01842 | 32219 ft | 413 kts | 229° |
| 2026-05-04 05:07 | 26.72371 | 115.97148 | 32219 ft | 413 kts | 229° |
| 2026-05-04 05:09 | 26.54807 | 115.75905 | 32218 ft | 413 kts | 229° |
| 2026-05-04 05:10 | 26.50897 | 115.71190 | 32212 ft | 413 kts | 229° |
| 2026-05-04 05:10 | 26.46987 | 115.66482 | 32222 ft | 413 kts | 229° |
| 2026-05-04 05:11 | 26.43101 | 115.61805 | 32213 ft | 413 kts | 229° |
| 2026-05-04 05:11 | 26.39192 | 115.57108 | 32219 ft | 413 kts | 229° |
| 2026-05-04 05:12 | 26.35277 | 115.52407 | 32207 ft | 413 kts | 229° |
| 2026-05-04 05:12 | 26.31371 | 115.47721 | 32220 ft | 413 kts | 229° |
| 2026-05-04 05:13 | 26.27458 | 115.43033 | 32206 ft | 413 kts | 229° |
| 2026-05-04 05:13 | 26.23545 | 115.38349 | 32207 ft | 413 kts | 229° |
| 2026-05-04 05:14 | 26.19631 | 115.33669 | 32213 ft | 412 kts | 229° |
| 2026-05-04 05:14 | 26.15736 | 115.29017 | 32212 ft | 413 kts | 229° |
| 2026-05-04 05:15 | 26.11819 | 115.24344 | 32214 ft | 413 kts | 229° |
| 2026-05-04 05:15 | 26.07896 | 115.19668 | 32209 ft | 413 kts | 229° |
| 2026-05-04 05:16 | 26.03970 | 115.14993 | 32208 ft | 413 kts | 229° |
| 2026-05-04 05:16 | 26.00052 | 115.10333 | 32210 ft | 414 kts | 229° |
| 2026-05-04 05:17 | 25.96108 | 115.05646 | 32208 ft | 414 kts | 229° |
| 2026-05-04 05:17 | 25.92200 | 115.01008 | 32207 ft | 414 kts | 229° |
| 2026-05-04 05:18 | 25.88263 | 114.96338 | 32206 ft | 414 kts | 229° |
| 2026-05-04 05:18 | 25.84325 | 114.91689 | 32202 ft | 415 kts | 227° |
| 2026-05-04 05:19 | 25.79559 | 114.87977 | 32202 ft | 423 kts | 212° |
| 2026-05-04 05:19 | 25.73988 | 114.85688 | 32211 ft | 434 kts | 200° |
| 2026-05-04 05:20 | 25.68065 | 114.84243 | 32202 ft | 435 kts | 199° |
| 2026-05-04 05:20 | 25.62136 | 114.82833 | 32200 ft | 435 kts | 199° |
| 2026-05-04 05:21 | 25.56212 | 114.81388 | 32204 ft | 435 kts | 199° |
| 2026-05-04 05:21 | 25.50337 | 114.79934 | 32199 ft | 435 kts | 199° |
| 2026-05-04 05:22 | 25.44433 | 114.78468 | 32194 ft | 435 kts | 199° |
| 2026-05-04 05:22 | 25.38522 | 114.77003 | 32201 ft | 435 kts | 199° |
| 2026-05-04 05:23 | 25.32613 | 114.75540 | 32198 ft | 435 kts | 199° |
| 2026-05-04 05:23 | 25.26693 | 114.74077 | 32198 ft | 435 kts | 199° |
| 2026-05-04 05:24 | 25.20813 | 114.72625 | 32196 ft | 435 kts | 199° |
| 2026-05-04 05:24 | 25.14907 | 114.71168 | 32201 ft | 435 kts | 199° |
| 2026-05-04 05:25 | 25.08998 | 114.69711 | 32207 ft | 435 kts | 199° |
| 2026-05-04 05:25 | 25.03090 | 114.68256 | 32200 ft | 435 kts | 199° |
| 2026-05-04 05:26 | 24.97163 | 114.66798 | 32203 ft | 436 kts | 199° |
| 2026-05-04 05:26 | 24.91267 | 114.65348 | 32199 ft | 436 kts | 199° |
| 2026-05-04 05:28 | 24.67841 | 114.58857 | 32199 ft | 425 kts | 213° |
| 2026-05-04 05:29 | 24.62738 | 114.55594 | 32212 ft | 424 kts | 215° |
| 2026-05-04 05:29 | 24.57637 | 114.52319 | 32207 ft | 425 kts | 214° |
| 2026-05-04 05:31 | 24.37041 | 114.39320 | 32213 ft | 428 kts | 214° |
| 2026-05-04 05:32 | 24.31853 | 114.36083 | 32195 ft | 430 kts | 214° |
| 2026-05-04 05:33 | 24.24914 | 114.31754 | 32181 ft | 430 kts | 214° |
| 2026-05-04 05:33 | 24.19709 | 114.28508 | 32183 ft | 430 kts | 214° |
| 2026-05-04 05:34 | 24.14504 | 114.25263 | 32184 ft | 430 kts | 214° |
| 2026-05-04 05:34 | 24.09314 | 114.22033 | 32166 ft | 429 kts | 214° |
| 2026-05-04 05:35 | 24.04126 | 114.18803 | 32193 ft | 429 kts | 214° |
| 2026-05-04 05:35 | 23.98954 | 114.15579 | 32181 ft | 430 kts | 214° |
| 2026-05-04 05:36 | 23.93752 | 114.12338 | 32177 ft | 432 kts | 214° |
| 2026-05-04 05:36 | 23.88522 | 114.09083 | 32168 ft | 432 kts | 214° |
| 2026-05-04 05:37 | 23.83284 | 114.05828 | 32181 ft | 432 kts | 214° |
| 2026-05-04 05:37 | 23.78088 | 114.02601 | 32173 ft | 433 kts | 214° |
| 2026-05-04 05:38 | 23.70212 | 113.97716 | 32169 ft | 434 kts | 214° |
| 2026-05-04 05:38 | 23.64974 | 113.94470 | 32170 ft | 433 kts | 214° |
| 2026-05-04 05:39 | 23.57145 | 113.89624 | 32177 ft | 429 kts | 214° |
| 2026-05-04 05:40 | 23.49152 | 113.85132 | 32167 ft | 439 kts | 204° |
| 2026-05-04 05:40 | 23.43201 | 113.83320 | 32165 ft | 445 kts | 201° |
| 2026-05-04 05:41 | 23.37235 | 113.81572 | 32158 ft | 448 kts | 201° |
| 2026-05-04 05:41 | 23.31219 | 113.79777 | 32155 ft | 448 kts | 201° |
| 2026-05-04 05:42 | 23.25209 | 113.77965 | 32155 ft | 448 kts | 201° |
| 2026-05-04 05:42 | 23.19186 | 113.76146 | 32153 ft | 448 kts | 201° |
| 2026-05-04 05:43 | 23.13170 | 113.74332 | 32154 ft | 448 kts | 201° |
| 2026-05-04 05:45 | 22.89334 | 113.67162 | 32158 ft | 442 kts | 202° |
| 2026-05-04 05:47 | 22.65810 | 113.60021 | 32167 ft | 442 kts | 201° |
| 2026-05-04 05:47 | 22.59876 | 113.58222 | 32164 ft | 442 kts | 201° |
| 2026-05-04 05:48 | 22.54074 | 113.56465 | 32162 ft | 443 kts | 201° |
| 2026-05-04 05:48 | 22.48134 | 113.54652 | 32159 ft | 444 kts | 201° |
| 2026-05-04 05:49 | 22.42198 | 113.52827 | 32147 ft | 445 kts | 201° |
| 2026-05-04 05:49 | 22.36223 | 113.50993 | 32152 ft | 446 kts | 201° |
| 2026-05-04 05:51 | 22.19265 | 113.39223 | 32160 ft | 424 kts | 249° |
| 2026-05-04 05:51 | 22.18197 | 113.36260 | 32146 ft | 425 kts | 250° |
| 2026-05-04 05:52 | 22.16074 | 113.30297 | 32145 ft | 426 kts | 249° |
| 2026-05-04 05:52 | 22.13864 | 113.24357 | 32146 ft | 427 kts | 249° |
| 2026-05-04 05:54 | 22.04191 | 113.00948 | 32149 ft | 428 kts | 247° |
| 2026-05-04 05:55 | 22.01839 | 112.95062 | 32144 ft | 427 kts | 248° |
| 2026-05-04 05:55 | 21.99556 | 112.89155 | 32150 ft | 427 kts | 248° |
| 2026-05-04 05:56 | 21.97247 | 112.83239 | 32144 ft | 427 kts | 248° |
| 2026-05-04 05:56 | 21.94920 | 112.77378 | 32148 ft | 427 kts | 248° |
| 2026-05-04 05:57 | 21.92557 | 112.71511 | 32142 ft | 427 kts | 248° |
| 2026-05-04 05:57 | 21.90186 | 112.65614 | 32154 ft | 427 kts | 248° |
| 2026-05-04 05:58 | 21.87828 | 112.59744 | 32134 ft | 428 kts | 248° |
| 2026-05-04 05:58 | 21.85463 | 112.53864 | 32139 ft | 428 kts | 248° |
| 2026-05-04 05:59 | 21.83116 | 112.47974 | 32139 ft | 428 kts | 248° |
| 2026-05-04 05:59 | 21.80775 | 112.42079 | 32140 ft | 428 kts | 248° |
| 2026-05-04 06:00 | 21.78432 | 112.36192 | 32139 ft | 428 kts | 248° |
| 2026-05-04 06:00 | 21.76095 | 112.30330 | 32141 ft | 428 kts | 248° |
| 2026-05-04 06:01 | 21.73740 | 112.24430 | 32134 ft | 429 kts | 248° |
| 2026-05-04 06:03 | 21.64309 | 112.00881 | 32128 ft | 428 kts | 248° |
| 2026-05-04 06:05 | 21.55436 | 111.80624 | 32119 ft | 433 kts | 234° |
| 2026-05-04 06:05 | 21.51511 | 111.75693 | 32116 ft | 434 kts | 232° |
| 2026-05-04 06:06 | 21.47559 | 111.70781 | 32118 ft | 435 kts | 232° |
| 2026-05-04 06:06 | 21.43613 | 111.65840 | 32122 ft | 435 kts | 232° |
| 2026-05-04 06:07 | 21.42024 | 111.63843 | 32123 ft | 435 kts | 232° |
| 2026-05-04 06:09 | 21.39679 | 111.60895 | 32121 ft | 436 kts | 232° |
| 2026-05-04 06:11 | 21.23876 | 111.41061 | 32118 ft | 438 kts | 232° |
| 2026-05-04 06:13 | 21.08010 | 111.21223 | 32117 ft | 439 kts | 231° |
| 2026-05-04 06:14 | 20.94065 | 111.03838 | 32115 ft | 441 kts | 231° |
| 2026-05-04 06:15 | 20.90075 | 110.98845 | 32112 ft | 441 kts | 232° |
| 2026-05-04 06:15 | 20.86754 | 110.94685 | 32111 ft | 442 kts | 232° |
| 2026-05-04 06:16 | 20.82105 | 110.88868 | 32111 ft | 442 kts | 231° |
| 2026-05-04 06:16 | 20.78752 | 110.84679 | 32110 ft | 443 kts | 231° |
| 2026-05-04 06:17 | 20.74097 | 110.78869 | 32112 ft | 443 kts | 231° |
| 2026-05-04 06:17 | 20.70760 | 110.74707 | 32113 ft | 443 kts | 231° |
| 2026-05-04 06:18 | 20.66735 | 110.69691 | 32111 ft | 443 kts | 231° |
| 2026-05-04 06:20 | 20.50579 | 110.49791 | 32102 ft | 446 kts | 226° |
| 2026-05-04 06:21 | 20.37850 | 110.40218 | 32106 ft | 447 kts | 217° |
| 2026-05-04 06:22 | 20.32752 | 110.36511 | 32104 ft | 447 kts | 217° |
| 2026-05-04 06:25 | 19.97440 | 110.11621 | 32114 ft | 453 kts | 207° |
| 2026-05-04 06:26 | 19.91677 | 110.08889 | 32093 ft | 454 kts | 207° |
| 2026-05-04 06:26 | 19.85887 | 110.06134 | 32099 ft | 455 kts | 207° |
| 2026-05-04 06:27 | 19.71430 | 109.99157 | 32093 ft | 457 kts | 207° |
| 2026-05-04 06:28 | 19.65669 | 109.96375 | 32099 ft | 458 kts | 207° |
| 2026-05-04 06:28 | 19.59847 | 109.93567 | 31682 ft | 465 kts | 207° |
| 2026-05-04 06:29 | 19.56898 | 109.92144 | 31017 ft | 464 kts | 207° |
| 2026-05-04 06:29 | 19.53950 | 109.90725 | 30253 ft | 465 kts | 207° |
| 2026-05-04 06:29 | 19.50996 | 109.89302 | 29300 ft | 468 kts | 207° |
| 2026-05-04 06:29 | 19.48023 | 109.87871 | 28384 ft | 468 kts | 207° |
| 2026-05-04 06:30 | 19.45060 | 109.86445 | 27455 ft | 469 kts | 207° |
| 2026-05-04 06:30 | 19.42078 | 109.85010 | 26507 ft | 470 kts | 207° |
| 2026-05-04 06:30 | 19.39093 | 109.83574 | 25585 ft | 471 kts | 207° |
| 2026-05-04 06:30 | 19.36128 | 109.82156 | 24871 ft | 467 kts | 207° |
| 2026-05-04 06:31 | 19.33170 | 109.80761 | 24176 ft | 463 kts | 206° |
| 2026-05-04 06:31 | 19.30239 | 109.79385 | 23438 ft | 459 kts | 206° |
| 2026-05-04 06:31 | 19.27363 | 109.78033 | 22668 ft | 454 kts | 207° |
| 2026-05-04 06:31 | 19.24492 | 109.76681 | 21952 ft | 448 kts | 207° |
| 2026-05-04 06:32 | 19.21668 | 109.75333 | 21274 ft | 442 kts | 207° |
| 2026-05-04 06:33 | 19.02766 | 109.66209 | 16545 ft | 411 kts | 207° |
| 2026-05-04 06:34 | 19.00176 | 109.64963 | 15914 ft | 407 kts | 207° |
| 2026-05-04 06:34 | 18.97642 | 109.63744 | 15291 ft | 403 kts | 207° |
| 2026-05-04 06:34 | 18.95099 | 109.62521 | 14661 ft | 400 kts | 207° |
| 2026-05-04 06:34 | 18.92573 | 109.61307 | 14021 ft | 398 kts | 207° |
| 2026-05-04 06:35 | 18.90055 | 109.60096 | 13337 ft | 396 kts | 206° |
| 2026-05-04 06:36 | 18.73516 | 109.52160 | 10737 ft | 334 kts | 206° |
| 2026-05-04 06:37 | 18.71434 | 109.51163 | 10585 ft | 324 kts | 206° |
| 2026-05-04 06:37 | 18.69540 | 109.50263 | 10474 ft | 315 kts | 203° |
| 2026-05-04 06:37 | 18.67395 | 109.49912 | 10373 ft | 309 kts | 174° |
| 2026-05-04 06:37 | 18.65410 | 109.50516 | 10288 ft | 294 kts | 156° |
| 2026-05-04 06:38 | 18.63625 | 109.51491 | 10051 ft | 285 kts | 153° |
| 2026-05-04 06:38 | 18.61897 | 109.52505 | 9605 ft | 284 kts | 152° |
| 2026-05-04 06:40 | 18.50100 | 109.59366 | 6668 ft | 268 kts | 152° |
| 2026-05-04 06:40 | 18.48486 | 109.60294 | 6266 ft | 266 kts | 151° |
| 2026-05-04 06:40 | 18.46862 | 109.61226 | 5836 ft | 265 kts | 151° |
| 2026-05-04 06:40 | 18.45248 | 109.62152 | 5406 ft | 264 kts | 151° |
| 2026-05-04 06:41 | 18.43643 | 109.63072 | 5009 ft | 262 kts | 151° |
| 2026-05-04 06:41 | 18.42066 | 109.63975 | 4762 ft | 253 kts | 151° |
| 2026-05-04 06:41 | 18.40518 | 109.64798 | 4591 ft | 245 kts | 161° |
| 2026-05-04 06:41 | 18.38866 | 109.65107 | 4489 ft | 236 kts | 173° |
| 2026-05-04 06:42 | 18.37260 | 109.65306 | 4375 ft | 229 kts | 172° |
| 2026-05-04 06:42 | 18.35675 | 109.65498 | 4125 ft | 229 kts | 178° |
| 2026-05-04 06:42 | 18.34166 | 109.65082 | 3896 ft | 225 kts | 214° |
| 2026-05-04 06:44 | 18.32100 | 109.55104 | 2370 ft | 195 kts | 262° |
| 2026-05-04 06:44 | 18.31913 | 109.53685 | 2110 ft | 196 kts | 261° |
| 2026-05-04 06:44 | 18.31731 | 109.52297 | 1876 ft | 186 kts | 261° |
| 2026-05-04 06:45 | 18.31564 | 109.50999 | 1640 ft | 178 kts | 261° |
| 2026-05-04 06:45 | 18.31400 | 109.49750 | 1389 ft | 168 kts | 262° |
| 2026-05-04 06:45 | 18.31243 | 109.48537 | 1208 ft | 167 kts | 262° |
| 2026-05-04 06:45 | 18.31083 | 109.47307 | 1009 ft | 171 kts | 261° |
| 2026-05-04 06:46 | 18.30921 | 109.46066 | 761 ft | 169 kts | 261° |
| 2026-05-04 06:46 | 18.30770 | 109.44854 | 516 ft | 164 kts | 260° |
| 2026-05-04 06:46 | 18.30616 | 109.43694 | 299 ft | 158 kts | 260° |
| 2026-05-04 06:46 | 18.30470 | 109.42572 | 96 ft | 150 kts | 261° |
| 2026-05-04 06:48 | 18.30330 | 109.40140 | 84 ft | 8 kts | 352° |
| 2026-05-04 06:48 | 18.30394 | 109.40147 | 87 ft | 11 kts | 52° |
| 2026-05-04 06:49 | 18.30408 | 109.40232 | 84 ft | 13 kts | 82° |
| 2026-05-04 06:50 | 18.30652 | 109.40796 | 85 ft | 11 kts | 352° |
| 2026-05-04 06:51 | 18.30723 | 109.40794 | 86 ft | 10 kts | 26° |
| 2026-05-04 06:51 | 18.30787 | 109.40805 | 86 ft | 7 kts | 352° |
| 2026-05-04 06:51 | 18.30816 | 109.40802 | 83 ft | 3 kts | 354° |
| 2026-05-04 06:51 | 18.30824 | 109.40801 | 86 ft | 0 kts | 353° |